Austin, TX (78725)

3:36 AM CDT on August 27, 2016 (GMT -0500)
Chaparral Crossing | | Change Station

Elev 440 ft 30.24 °N, 97.57 °W | Updated 12 seconds ago

Scattered Clouds
Scattered Clouds
74.1 °F
Feels Like 77 °F
N
0.0
Wind Variable Wind from WSW
Gusts 0.0 mph

Today
High -- | Low -- °F
--% Chance of Precip.
Yesterday
High -- | Low -- °F
Precip. -- in
Pressure 29.96 in
Visibility 9.0 miles
Clouds Scattered Clouds 3000 ft
Scattered Clouds 15000 ft
Heat Index 77 °F
Dew Point 60 °F
Humidity 62%
Rainfall 0.00 in
Snow Depth Not available.
7:04 AM 7:58 PM
Waning Crescent, 26% visible
METAR KAUS 270753Z 00000KT 9SM SCT030 SCT150 23/23 A2999 RMK AO2 SLP143 T02330228
Pressure 29.96 in
Visibility 9.0 miles
Clouds Scattered Clouds 3000 ft
Scattered Clouds 15000 ft
Heat Index 77 °F
Dew Point 60 °F
Humidity 62%
Rainfall 0.00 in
Snow Depth Not available.
7:04 AM 7:58 PM
Waning Crescent, 26% visible
METAR KAUS 270753Z 00000KT 9SM SCT030 SCT150 23/23 A2999 RMK AO2 SLP143 T02330228

10-Day Weather Forecast

Almanac

Astronomy

Aug. 27, 2016 Rise Set
Actual Time
Civil Twilight
Nautical Twilight
Astronomical Twilight
Moon
Length of Visible Light
Length of Day
Tomorrow will be .
, % of the Moon is Illuminated

Today's Extremes

State Highs State Lows

Community

WunderPhotos

Upload Photos

1,935,303 photos uploaded!

WunderBlog® & News

Nearby

Air Quality

  Air Quality AQ Index Pollutant
Not available.

Snow Depth

Station Depth Elevation

Earthquake Activity

City Distance Mag. Time & Date
Minimum magnitude displayed is 2.5.

Coastal Water Temperatures

Place Temperature

Stations

Nearby Weather Stations

Station Location Temp. Windchill Dew Point Humidity Wind Precip. Elev Updated Type
                   

Watches & Warnings

There are currently no watches in effect.